createdAt,value
2017-09-09T00:00:01.492Z,99192
2017-09-09T00:02:31.700Z,99185
2017-09-09T00:05:01.114Z,99186
2017-09-09T00:07:30.551Z,99183
2017-09-09T00:10:00.740Z,99181
2017-09-09T00:12:30.365Z,99182
2017-09-09T00:15:00.539Z,99179
2017-09-09T00:17:30.185Z,99178
2017-09-09T00:20:00.127Z,99177
2017-09-09T00:22:29.433Z,99180
2017-09-09T00:24:58.756Z,99180
2017-09-09T00:27:28.554Z,99172
2017-09-09T00:29:58.077Z,99172
2017-09-09T00:32:27.525Z,99174
2017-09-09T00:34:57.048Z,99175
2017-09-09T00:37:26.297Z,99174
2017-09-09T00:39:55.737Z,99168
2017-09-09T00:42:25.777Z,99165
2017-09-09T00:44:55.181Z,99171
2017-09-09T00:47:24.479Z,99162
2017-09-09T00:49:54.632Z,99162
2017-09-09T00:52:23.894Z,99162
2017-09-09T00:54:53.124Z,99162
2017-09-09T00:57:23.242Z,99164
2017-09-09T00:59:52.516Z,99159
2017-09-09T01:02:22.534Z,99153
2017-09-09T01:04:51.820Z,99155
2017-09-09T01:07:21.747Z,99155
2017-09-09T01:09:51.956Z,99155
2017-09-09T01:12:21.231Z,99153
2017-09-09T01:14:51.866Z,99155
2017-09-09T01:17:22.007Z,99156
2017-09-09T01:19:52.155Z,99155
2017-09-09T01:22:21.338Z,99160
2017-09-09T01:24:51.506Z,99156
2017-09-09T01:27:21.957Z,99157
2017-09-09T01:29:51.246Z,99158
2017-09-09T01:32:20.395Z,99159
2017-09-09T01:34:51.114Z,99157
2017-09-09T01:37:20.566Z,99159
2017-09-09T01:39:50.470Z,99153
2017-09-09T01:42:19.571Z,99163
2017-09-09T01:44:48.757Z,99160
2017-09-09T01:47:19.097Z,99156
2017-09-09T01:49:49.041Z,99158
2017-09-09T01:52:18.237Z,99162
2017-09-09T01:54:47.569Z,99161
2017-09-09T01:57:17.479Z,99165
2017-09-09T01:59:46.631Z,99161
2017-09-09T02:02:16.108Z,99158
2017-09-09T02:04:45.229Z,99156
2017-09-09T02:07:14.372Z,99158
2017-09-09T02:09:43.893Z,99162
2017-09-09T02:12:13.032Z,99162
2017-09-09T02:14:42.153Z,99163
2017-09-09T02:17:11.398Z,99159
2017-09-09T02:19:40.655Z,99158
2017-09-09T02:22:09.877Z,99162
2017-09-09T02:24:39.995Z,99160
2017-09-09T02:27:09.110Z,99164
2017-09-09T02:29:38.237Z,99167
2017-09-09T02:32:07.536Z,99166
2017-09-09T02:34:37.469Z,99172
2017-09-09T02:37:06.859Z,99175
2017-09-09T02:39:36.108Z,99170
2017-09-09T02:42:06.074Z,99173
2017-09-09T02:44:35.237Z,99171
2017-09-09T02:47:04.706Z,99173
2017-09-09T02:49:35.546Z,99168
2017-09-09T02:52:05.037Z,99163
2017-09-09T02:54:34.202Z,99165
2017-09-09T02:57:04.153Z,99159
2017-09-09T02:59:33.295Z,99171
2017-09-09T03:02:02.626Z,99170
2017-09-09T03:04:31.754Z,99169
2017-09-09T03:07:00.879Z,99173
2017-09-09T03:09:30.260Z,99168
2017-09-09T03:11:59.368Z,99162
2017-09-09T03:14:28.484Z,99164
2017-09-09T03:16:57.752Z,99160
2017-09-09T03:19:26.874Z,99162
2017-09-09T03:21:56.311Z,99168
2017-09-09T03:24:25.709Z,99172
2017-09-09T03:26:55.629Z,99170
2017-09-09T03:29:24.766Z,99176
2017-09-09T03:31:54.083Z,99181
2017-09-09T03:34:24.037Z,99181
2017-09-09T03:36:53.166Z,99181
2017-09-09T03:39:22.589Z,99185
2017-09-09T03:41:51.831Z,99182
2017-09-09T03:44:20.994Z,99184
2017-09-09T03:46:51.165Z,99184
2017-09-09T03:49:20.310Z,99179
2017-09-09T03:51:49.592Z,99180
2017-09-09T03:54:19.293Z,99178
2017-09-09T03:56:48.425Z,99180
2017-09-09T03:59:17.583Z,99175
2017-09-09T04:01:46.897Z,99181
2017-09-09T04:04:16.083Z,99170
2017-09-09T04:06:45.385Z,99173
2017-09-09T04:09:15.483Z,99174
2017-09-09T04:11:45.500Z,99175
2017-09-09T04:14:15.471Z,99182
2017-09-09T04:16:45.110Z,99184
2017-09-09T04:19:14.354Z,99182
2017-09-09T04:21:43.749Z,99177
2017-09-09T04:24:13.401Z,99174
2017-09-09T04:26:42.666Z,99174
2017-09-09T04:29:11.940Z,99179
2017-09-09T04:31:41.443Z,99177
2017-09-09T04:34:10.735Z,99177
2017-09-09T04:36:39.861Z,99177
2017-09-09T04:39:09.170Z,99184
2017-09-09T04:41:39.117Z,99176
2017-09-09T04:44:08.401Z,99172
2017-09-09T04:46:37.646Z,99174
2017-09-09T04:49:06.736Z,99170
2017-09-09T04:51:35.937Z,99164
2017-09-09T04:54:05.431Z,99163
2017-09-09T04:56:34.642Z,99160
2017-09-09T04:59:03.758Z,99163
2017-09-09T05:01:32.940Z,99167
2017-09-09T05:04:02.108Z,99167
2017-09-09T05:06:31.251Z,99176
2017-09-09T05:09:00.591Z,99167
2017-09-09T05:11:29.737Z,99168
2017-09-09T05:13:58.880Z,99175
2017-09-09T05:16:28.110Z,99174
2017-09-09T05:18:57.987Z,99174
2017-09-09T05:21:27.114Z,99176
2017-09-09T05:23:56.927Z,99173
2017-09-09T05:26:26.024Z,99168
2017-09-09T05:28:55.129Z,99157
2017-09-09T05:31:24.593Z,99149
2017-09-09T05:33:53.796Z,99140
2017-09-09T05:36:23.085Z,99149
2017-09-09T05:38:52.360Z,99159
2017-09-09T05:41:21.574Z,99160
2017-09-09T05:43:51.625Z,99159
2017-09-09T05:46:21.494Z,99153
2017-09-09T05:48:51.784Z,99148
2017-09-09T05:51:20.913Z,99145
2017-09-09T05:53:50.365Z,99147
2017-09-09T05:56:20.228Z,99150
2017-09-09T05:58:49.424Z,99160
2017-09-09T06:01:18.997Z,99163
2017-09-09T06:03:48.235Z,99155
2017-09-09T06:06:19.620Z,99151
2017-09-09T06:08:48.826Z,99140
2017-09-09T06:11:18.035Z,99133
2017-09-09T06:13:47.416Z,99136
2017-09-09T06:16:18.485Z,99137
2017-09-09T06:18:47.757Z,99139
2017-09-09T06:21:17.176Z,99146
2017-09-09T06:23:46.892Z,99142
2017-09-09T06:26:16.803Z,99144
2017-09-09T06:28:46.250Z,99147
2017-09-09T06:31:15.677Z,99146
2017-09-09T06:33:46.846Z,99143
2017-09-09T06:36:16.452Z,99138
2017-09-09T06:38:46.474Z,99137
2017-09-09T06:41:15.876Z,99132
2017-09-09T06:43:45.483Z,99136
2017-09-09T06:46:15.722Z,99134
2017-09-09T06:48:44.852Z,99138
2017-09-09T06:51:14.915Z,99136
2017-09-09T06:53:44.062Z,99130
2017-09-09T06:56:13.216Z,99129
2017-09-09T06:58:43.283Z,99132
2017-09-09T07:01:12.514Z,99129
2017-09-09T07:03:41.618Z,99130
2017-09-09T07:06:11.009Z,99134
2017-09-09T07:08:40.104Z,99135
2017-09-09T07:11:09.222Z,99127
2017-09-09T07:13:39.295Z,99127
2017-09-09T07:16:08.518Z,99126
2017-09-09T07:18:38.453Z,99121
2017-09-09T07:21:07.722Z,99124
2017-09-09T07:23:36.997Z,99125
2017-09-09T07:26:06.102Z,99117
2017-09-09T07:28:35.417Z,99116
2017-09-09T07:31:04.655Z,99113
2017-09-09T07:33:34.080Z,99109
2017-09-09T07:36:03.628Z,99109
2017-09-09T07:38:33.090Z,99104
2017-09-09T07:41:02.456Z,99106
2017-09-09T07:43:33.154Z,99110
2017-09-09T07:46:02.304Z,99111
2017-09-09T07:48:31.483Z,99104
2017-09-09T07:51:00.784Z,99108
2017-09-09T07:53:29.893Z,99112
2017-09-09T07:55:59.772Z,99115
2017-09-09T07:58:29.380Z,99122
2017-09-09T08:00:59.298Z,99116
2017-09-09T08:03:28.442Z,99115
2017-09-09T08:05:57.772Z,99122
2017-09-09T08:08:27.055Z,99125
2017-09-09T08:10:56.387Z,99124
2017-09-09T08:13:25.883Z,99120
2017-09-09T08:15:55.962Z,99114
2017-09-09T08:18:25.112Z,99109
2017-09-09T08:20:55.066Z,99105
2017-09-09T08:23:25.454Z,99100
2017-09-09T08:25:55.901Z,99100
2017-09-09T08:28:25.932Z,99101
2017-09-09T08:30:55.101Z,99105
2017-09-09T08:33:25.222Z,99109
2017-09-09T08:35:55.724Z,99111
2017-09-09T08:38:26.504Z,99109
2017-09-09T08:40:57.712Z,99111
2017-09-09T08:43:26.965Z,99111
2017-09-09T08:45:56.477Z,99111
2017-09-09T08:48:26.415Z,99109
2017-09-09T08:50:55.638Z,99108
2017-09-09T08:53:24.973Z,99110
2017-09-09T08:55:54.103Z,99110
2017-09-09T08:58:23.261Z,99109
2017-09-09T09:00:52.608Z,99109
2017-09-09T09:03:21.854Z,99106
2017-09-09T09:05:51.312Z,99108
2017-09-09T09:08:20.814Z,99113
2017-09-09T09:10:50.125Z,99112
2017-09-09T09:13:19.417Z,99115
2017-09-09T09:15:49.070Z,99110
2017-09-09T09:18:18.315Z,99113
2017-09-09T09:20:48.417Z,99112
2017-09-09T09:23:17.747Z,99104
2017-09-09T09:25:47.868Z,99103
2017-09-09T09:28:17.317Z,99099
2017-09-09T09:30:47.206Z,99106
2017-09-09T09:33:16.592Z,99106
2017-09-09T09:35:45.825Z,99107
2017-09-09T09:38:16.353Z,99100
2017-09-09T09:40:45.687Z,99102
2017-09-09T09:43:15.068Z,99093
2017-09-09T09:45:45.581Z,99090
2017-09-09T09:48:15.203Z,99089
2017-09-09T09:50:44.907Z,99078
2017-09-09T09:53:14.292Z,99083
2017-09-09T09:55:43.538Z,99080
2017-09-09T09:58:13.068Z,99078
2017-09-09T10:00:42.355Z,99074
2017-09-09T10:03:11.608Z,99072
2017-09-09T10:05:40.706Z,99080
2017-09-09T10:08:09.965Z,99074
2017-09-09T10:10:39.059Z,99071
2017-09-09T10:13:08.163Z,99074
2017-09-09T10:15:37.421Z,99079
2017-09-09T10:18:06.543Z,99080
2017-09-09T10:20:36.606Z,99075
2017-09-09T10:23:05.922Z,99069
2017-09-09T10:25:35.961Z,99070
2017-09-09T10:28:05.977Z,99068
2017-09-09T10:30:36.340Z,99067
2017-09-09T10:33:05.476Z,99057
2017-09-09T10:35:34.577Z,99054
2017-09-09T10:38:04.000Z,99064
2017-09-09T10:40:33.198Z,99062
2017-09-09T10:43:03.085Z,99066
2017-09-09T10:45:32.331Z,99066
2017-09-09T10:48:02.252Z,99068
2017-09-09T10:50:31.405Z,99070
2017-09-09T10:53:00.756Z,99064
2017-09-09T10:55:30.186Z,99059
2017-09-09T10:57:59.298Z,99055
2017-09-09T11:00:28.601Z,99054
2017-09-09T11:02:57.739Z,99049
2017-09-09T11:05:26.976Z,99053
2017-09-09T11:07:57.026Z,99054
2017-09-09T11:10:27.033Z,99054
2017-09-09T11:12:56.292Z,99053
2017-09-09T11:15:25.941Z,99058
2017-09-09T11:17:55.145Z,99060
2017-09-09T11:20:27.161Z,99067
2017-09-09T11:22:56.406Z,99064
2017-09-09T11:25:25.557Z,99073
2017-09-09T11:27:54.906Z,99070
2017-09-09T11:30:24.186Z,99075
2017-09-09T11:32:54.098Z,99074
2017-09-09T11:35:23.534Z,99079
2017-09-09T11:37:52.716Z,99082
2017-09-09T11:40:21.910Z,99078
2017-09-09T11:42:51.229Z,99080
2017-09-09T11:45:20.447Z,99079
2017-09-09T11:47:50.427Z,99085
2017-09-09T11:50:19.967Z,99084
2017-09-09T11:52:49.233Z,99087
2017-09-09T11:55:19.249Z,99092
2017-09-09T11:57:48.496Z,99091
2017-09-09T12:00:18.479Z,99100
2017-09-09T12:02:48.636Z,99095
2017-09-09T12:05:18.434Z,99103
2017-09-09T12:07:48.624Z,99099
2017-09-09T12:10:18.582Z,99106
2017-09-09T12:12:48.073Z,99108
2017-09-09T12:15:17.321Z,99103
2017-09-09T12:17:46.649Z,99108
2017-09-09T12:20:16.991Z,99110
2017-09-09T12:22:46.279Z,99110
2017-09-09T12:25:15.477Z,99112
2017-09-09T12:27:45.144Z,99116
2017-09-09T12:30:15.271Z,99117
2017-09-09T12:32:44.573Z,99114
2017-09-09T12:35:14.089Z,99118
2017-09-09T12:37:43.495Z,99112
2017-09-09T12:40:12.637Z,99106
2017-09-09T12:42:41.866Z,99112
2017-09-09T12:45:11.010Z,99115
2017-09-09T12:47:40.094Z,99116
2017-09-09T12:50:09.551Z,99117
2017-09-09T12:52:38.630Z,99119
2017-09-09T12:55:07.776Z,99118
2017-09-09T12:57:37.195Z,99117
2017-09-09T13:00:06.348Z,99119
2017-09-09T13:02:35.581Z,99111
2017-09-09T13:05:06.019Z,99105
2017-09-09T13:07:35.220Z,99108
2017-09-09T13:10:04.653Z,99118
2017-09-09T13:12:34.170Z,99113
2017-09-09T13:15:03.292Z,99107
2017-09-09T13:17:33.167Z,99103
2017-09-09T13:20:02.582Z,99103
2017-09-09T13:22:31.715Z,99108
2017-09-09T13:25:00.895Z,99104
2017-09-09T13:27:30.194Z,99106
2017-09-09T13:30:00.725Z,99104
2017-09-09T13:32:29.900Z,99099
2017-09-09T13:34:59.421Z,99098
2017-09-09T13:37:29.349Z,99093
2017-09-09T13:39:58.642Z,99106
2017-09-09T13:42:27.895Z,99108
2017-09-09T13:44:57.810Z,99115
2017-09-09T13:47:29.954Z,99117
2017-09-09T13:50:01.434Z,99119
2017-09-09T13:52:33.235Z,99126
2017-09-09T13:55:09.744Z,99122
2017-09-09T13:57:42.777Z,99128
2017-09-09T14:00:13.128Z,99123
2017-09-09T14:02:42.449Z,99127
2017-09-09T14:05:14.328Z,99142
2017-09-09T14:07:43.866Z,99147
2017-09-09T14:10:13.294Z,99154
2017-09-09T14:12:42.517Z,99153
2017-09-09T14:15:12.118Z,99156
2017-09-09T14:17:42.201Z,99162
2017-09-09T14:20:12.879Z,99176
2017-09-09T14:22:48.712Z,99178
2017-09-09T14:25:18.682Z,99169
2017-09-09T14:27:48.392Z,99176
2017-09-09T14:30:18.532Z,99181
2017-09-09T14:32:51.576Z,99176
2017-09-09T14:35:22.835Z,99184
2017-09-09T14:37:53.368Z,99185
2017-09-09T14:40:23.472Z,99195
2017-09-09T14:42:52.727Z,99190
2017-09-09T14:45:21.856Z,99195
2017-09-09T14:47:52.414Z,99200
2017-09-09T14:50:21.660Z,99206
2017-09-09T14:52:52.117Z,99214
2017-09-09T14:55:21.369Z,99219
2017-09-09T14:57:51.438Z,99212
2017-09-09T15:00:22.319Z,99213
2017-09-09T15:02:51.445Z,99215
2017-09-09T15:05:22.547Z,99215
2017-09-09T15:07:51.872Z,99224
2017-09-09T15:10:21.556Z,99226
2017-09-09T15:12:52.002Z,99229
2017-09-09T15:15:21.254Z,99238
2017-09-09T15:17:51.336Z,99234
2017-09-09T15:20:20.675Z,99237
2017-09-09T15:22:51.366Z,99237
2017-09-09T15:25:21.722Z,99232
2017-09-09T15:27:50.978Z,99234
2017-09-09T15:30:20.282Z,99235
2017-09-09T15:32:49.595Z,99249
2017-09-09T15:35:19.133Z,99244
2017-09-09T15:37:48.811Z,99248
2017-09-09T15:40:18.154Z,99244
2017-09-09T15:42:47.303Z,99250
2017-09-09T15:45:16.542Z,99242
2017-09-09T15:47:46.435Z,99245
2017-09-09T15:50:23.241Z,99255
2017-09-09T15:52:52.441Z,99261
2017-09-09T15:55:26.279Z,99262
2017-09-09T15:57:56.125Z,99265
2017-09-09T16:00:26.126Z,99274
2017-09-09T16:02:56.709Z,99284
2017-09-09T16:05:26.804Z,99288
2017-09-09T16:07:58.886Z,99290
2017-09-09T16:10:42.369Z,99293
2017-09-09T16:13:15.266Z,99289
2017-09-09T16:15:46.047Z,99293
2017-09-09T16:18:21.198Z,99292
2017-09-09T16:20:53.556Z,99303
2017-09-09T16:23:23.747Z,99308
2017-09-09T16:25:52.866Z,99317
2017-09-09T16:28:22.039Z,99318
2017-09-09T16:30:52.046Z,99315
2017-09-09T16:33:21.177Z,99319
2017-09-09T16:35:50.355Z,99330
2017-09-09T16:38:20.297Z,99324
2017-09-09T16:40:49.458Z,99324
2017-09-09T16:43:20.029Z,99334
2017-09-09T16:45:50.087Z,99330
2017-09-09T16:48:20.229Z,99328
2017-09-09T16:50:49.460Z,99329
2017-09-09T16:53:23.594Z,99331
2017-09-09T16:55:53.683Z,99349
2017-09-09T16:58:22.964Z,99343
2017-09-09T17:00:52.281Z,99342
2017-09-09T17:03:21.773Z,99344
2017-09-09T17:05:50.890Z,99348
2017-09-09T17:08:20.975Z,99352
2017-09-09T17:10:50.181Z,99347
2017-09-09T17:13:19.364Z,99353
2017-09-09T17:15:49.973Z,99360
2017-09-09T17:18:19.186Z,99363
2017-09-09T17:20:48.491Z,99369
2017-09-09T17:23:17.796Z,99389
2017-09-09T17:25:46.903Z,99390
2017-09-09T17:28:17.031Z,99391
2017-09-09T17:30:47.298Z,99397
2017-09-09T17:33:17.292Z,99398
2017-09-09T17:35:46.521Z,99401
2017-09-09T17:38:16.100Z,99407
2017-09-09T17:40:45.767Z,99406
2017-09-09T17:43:15.493Z,99413
2017-09-09T17:45:46.373Z,99418
2017-09-09T17:48:15.800Z,99425
2017-09-09T17:50:47.179Z,99425
2017-09-09T17:53:16.325Z,99427
2017-09-09T17:55:47.540Z,99432
2017-09-09T17:58:16.774Z,99440
2017-09-09T18:00:47.193Z,99440
2017-09-09T18:03:23.977Z,99444
2017-09-09T18:05:55.189Z,99449
2017-09-09T18:08:26.055Z,99460
2017-09-09T18:10:56.788Z,99466
2017-09-09T18:13:26.575Z,99460
2017-09-09T18:15:56.389Z,99460
2017-09-09T18:18:25.624Z,99462
2017-09-09T18:20:54.707Z,99467
2017-09-09T18:23:23.993Z,99474
2017-09-09T18:25:53.151Z,99480
2017-09-09T18:28:22.367Z,99481
2017-09-09T18:30:55.286Z,99482
2017-09-09T18:33:24.751Z,99490
2017-09-09T18:35:54.395Z,99492
2017-09-09T18:38:26.714Z,99493
2017-09-09T18:41:01.935Z,99494
2017-09-09T18:43:31.067Z,99490
2017-09-09T18:46:01.098Z,99492
2017-09-09T18:48:30.397Z,99491
2017-09-09T18:51:00.654Z,99493
2017-09-09T18:53:29.750Z,99498
2017-09-09T18:55:58.851Z,99502
2017-09-09T18:58:28.315Z,99509
2017-09-09T19:00:58.250Z,99520
2017-09-09T19:03:27.349Z,99527
2017-09-09T19:05:56.680Z,99530
2017-09-09T19:08:26.581Z,99533
2017-09-09T19:10:56.545Z,99537
2017-09-09T19:13:25.844Z,99541
2017-09-09T19:15:54.951Z,99542
2017-09-09T19:18:24.817Z,99552
2017-09-09T19:20:54.838Z,99558
2017-09-09T19:23:24.898Z,99563
2017-09-09T19:25:54.230Z,99566
2017-09-09T19:28:23.401Z,99570
2017-09-09T19:30:52.609Z,99577
2017-09-09T19:33:22.706Z,99576
2017-09-09T19:35:52.589Z,99579
2017-09-09T19:38:21.749Z,99577
2017-09-09T19:40:51.155Z,99582
2017-09-09T19:43:20.278Z,99581
2017-09-09T19:45:49.384Z,99578
2017-09-09T19:48:18.866Z,99577
2017-09-09T19:50:47.962Z,99577
2017-09-09T19:53:17.065Z,99582
2017-09-09T19:55:46.237Z,99577
2017-09-09T19:58:15.430Z,99580
2017-09-09T20:00:44.526Z,99580
2017-09-09T20:03:13.748Z,99581
2017-09-09T20:05:42.891Z,99583
2017-09-09T20:08:12.968Z,99593
2017-09-09T20:10:42.369Z,99600
2017-09-09T20:13:12.353Z,99607
2017-09-09T20:15:41.688Z,99608
2017-09-09T20:18:11.191Z,99606
2017-09-09T20:20:40.460Z,99615
2017-09-09T20:23:10.608Z,99619
2017-09-09T20:25:40.546Z,99625
2017-09-09T20:28:09.825Z,99625
2017-09-09T20:30:39.177Z,99624
2017-09-09T20:33:09.189Z,99623
2017-09-09T20:35:38.524Z,99626
2017-09-09T20:38:08.568Z,99626
2017-09-09T20:40:37.982Z,99629
2017-09-09T20:43:07.278Z,99629
2017-09-09T20:45:37.801Z,99628
2017-09-09T20:48:07.182Z,99630
2017-09-09T20:50:38.024Z,99628
2017-09-09T20:53:07.461Z,99637
2017-09-09T20:55:36.940Z,99640
2017-09-09T20:58:07.099Z,99643
2017-09-09T21:00:37.719Z,99651
2017-09-09T21:03:06.995Z,99653
2017-09-09T21:05:36.906Z,99659
2017-09-09T21:08:06.291Z,99664
2017-09-09T21:10:35.472Z,99667
2017-09-09T21:13:04.604Z,99670
2017-09-09T21:15:34.030Z,99675
2017-09-09T21:18:03.143Z,99686
2017-09-09T21:20:32.231Z,99691
2017-09-09T21:23:01.391Z,99686
2017-09-09T21:25:30.529Z,99687
2017-09-09T21:27:59.767Z,99693
2017-09-09T21:30:29.176Z,99690
2017-09-09T21:32:59.306Z,99692
2017-09-09T21:35:28.485Z,99696
2017-09-09T21:37:57.889Z,99695
2017-09-09T21:40:27.148Z,99697
2017-09-09T21:42:56.244Z,99701
2017-09-09T21:45:25.650Z,99695
2017-09-09T21:47:55.613Z,99694
2017-09-09T21:50:25.641Z,99700
2017-09-09T21:52:55.625Z,99694
2017-09-09T21:55:24.833Z,99694
2017-09-09T21:57:55.477Z,99689
2017-09-09T22:00:24.916Z,99685
2017-09-09T22:02:54.065Z,99684
2017-09-09T22:05:23.193Z,99689
2017-09-09T22:07:52.451Z,99684
2017-09-09T22:10:21.796Z,99680
2017-09-09T22:12:50.878Z,99682
2017-09-09T22:15:20.250Z,99681
2017-09-09T22:17:49.546Z,99675
2017-09-09T22:20:19.786Z,99679
2017-09-09T22:22:49.487Z,99679
2017-09-09T22:25:19.218Z,99685
2017-09-09T22:27:49.122Z,99681
2017-09-09T22:30:18.536Z,99679
2017-09-09T22:32:47.733Z,99681
2017-09-09T22:35:16.921Z,99685
2017-09-09T22:37:48.286Z,99682
2017-09-09T22:40:17.498Z,99689
2017-09-09T22:42:46.726Z,99688
2017-09-09T22:45:16.071Z,99693
2017-09-09T22:47:46.028Z,99699
2017-09-09T22:50:15.283Z,99701
2017-09-09T22:52:45.909Z,99700
2017-09-09T22:55:15.175Z,99706
2017-09-09T22:57:44.430Z,99708
2017-09-09T23:00:14.450Z,99713
2017-09-09T23:02:43.926Z,99715
2017-09-09T23:05:13.613Z,99714
2017-09-09T23:07:43.506Z,99720
2017-09-09T23:10:12.809Z,99722
2017-09-09T23:12:42.226Z,99720
2017-09-09T23:15:11.566Z,99717
2017-09-09T23:17:42.006Z,99717
2017-09-09T23:20:11.469Z,99724
2017-09-09T23:22:40.979Z,99725
2017-09-09T23:25:10.484Z,99724
2017-09-09T23:27:41.044Z,99726
2017-09-09T23:30:11.233Z,99725
2017-09-09T23:32:40.841Z,99722
2017-09-09T23:35:10.372Z,99725
2017-09-09T23:37:39.815Z,99731
2017-09-09T23:40:09.128Z,99722
2017-09-09T23:42:38.331Z,99723
2017-09-09T23:45:08.092Z,99718
2017-09-09T23:47:37.336Z,99723
2017-09-09T23:50:06.995Z,99725
2017-09-09T23:52:36.784Z,99722
2017-09-09T23:55:05.944Z,99722
2017-09-09T23:57:36.574Z,99723
